createdAt,value
2019-01-11T00:01:42.614Z,67.60
2019-01-11T00:04:47.708Z,67.50
2019-01-11T00:07:52.794Z,67.40
2019-01-11T00:10:57.831Z,67.00
2019-01-11T00:14:02.870Z,66.30
2019-01-11T00:17:07.966Z,66.00
2019-01-11T00:20:13.052Z,66.40
2019-01-11T00:23:18.172Z,66.50
2019-01-11T00:26:23.210Z,66.20
2019-01-11T00:29:28.298Z,66.00
2019-01-11T00:32:33.470Z,66.00
2019-01-11T00:35:38.550Z,66.00
2019-01-11T00:38:43.492Z,66.30
2019-01-11T00:41:48.579Z,66.10
2019-01-11T00:44:53.536Z,65.90
2019-01-11T00:47:58.474Z,66.20
2019-01-11T00:51:03.587Z,65.40
2019-01-11T00:54:08.592Z,65.80
2019-01-11T00:57:13.674Z,65.60
2019-01-11T01:00:20.442Z,65.60
2019-01-11T01:03:25.613Z,65.30
2019-01-11T01:06:30.711Z,65.50
2019-01-11T01:09:35.827Z,65.70
2019-01-11T01:12:40.928Z,65.50
2019-01-11T01:15:45.959Z,65.50
2019-01-11T01:18:51.066Z,65.20
2019-01-11T01:21:56.155Z,64.80
2019-01-11T01:25:01.271Z,64.70
2019-01-11T01:28:06.372Z,64.30
2019-01-11T01:31:11.491Z,64.20
2019-01-11T01:34:16.595Z,64.30
2019-01-11T01:37:21.635Z,64.00
2019-01-11T01:40:26.754Z,63.20
2019-01-11T01:43:31.838Z,63.00
2019-01-11T01:46:36.890Z,63.60
2019-01-11T01:49:41.827Z,62.50
2019-01-11T01:52:46.936Z,62.40
2019-01-11T01:55:51.879Z,62.30
2019-01-11T01:58:56.989Z,62.20
2019-01-11T02:02:02.079Z,62.10
2019-01-11T02:05:08.257Z,62.20
2019-01-11T02:08:13.374Z,62.00
2019-01-11T02:11:18.543Z,61.80
2019-01-11T02:14:23.645Z,61.60
2019-01-11T02:17:28.688Z,61.40
2019-01-11T02:20:33.811Z,61.60
2019-01-11T02:23:38.923Z,61.80
2019-01-11T02:26:43.935Z,61.90
2019-01-11T02:29:48.899Z,62.20
2019-01-11T02:32:53.908Z,62.20
2019-01-11T02:35:58.864Z,62.10
2019-01-11T02:39:05.240Z,62.30
2019-01-11T02:42:10.322Z,62.50
2019-01-11T02:45:17.704Z,62.40
2019-01-11T02:48:22.806Z,62.90
2019-01-11T02:51:27.839Z,63.20
2019-01-11T02:54:32.799Z,63.40
2019-01-11T02:57:37.898Z,63.60
2019-01-11T03:00:42.944Z,63.70
2019-01-11T03:03:47.969Z,64.30
2019-01-11T03:06:53.000Z,63.50
2019-01-11T03:09:58.029Z,63.70
2019-01-11T03:13:03.118Z,63.90
2019-01-11T03:16:08.227Z,64.20
2019-01-11T03:19:13.396Z,64.50
2019-01-11T03:22:18.496Z,65.00
2019-01-11T03:25:23.590Z,65.30
2019-01-11T03:28:28.563Z,65.30
2019-01-11T03:31:36.369Z,65.50
2019-01-11T03:34:57.441Z,65.70
2019-01-11T03:38:02.507Z,66.00
2019-01-11T03:41:07.712Z,66.20
2019-01-11T03:44:12.839Z,66.40
2019-01-11T03:47:17.949Z,66.80
2019-01-11T03:50:23.748Z,67.00
2019-01-11T03:53:28.789Z,67.30
2019-01-11T03:56:33.808Z,67.40
2019-01-11T03:59:38.911Z,67.70
2019-01-11T04:02:45.019Z,68.00
2019-01-11T04:05:50.605Z,68.10
2019-01-11T04:08:55.740Z,68.50
2019-01-11T04:12:00.830Z,68.90
2019-01-11T04:15:06.670Z,69.20
2019-01-11T04:18:25.711Z,69.40
2019-01-11T04:21:30.847Z,69.70
2019-01-11T04:24:49.856Z,70.10
2019-01-11T04:27:55.071Z,70.60
2019-01-11T04:31:00.104Z,70.70
2019-01-11T04:34:05.194Z,71.00
2019-01-11T04:37:10.218Z,71.40
2019-01-11T04:40:17.242Z,71.40
2019-01-11T04:43:22.347Z,71.30
2019-01-11T04:46:27.312Z,71.50
2019-01-11T04:49:32.360Z,71.80
2019-01-11T04:52:37.495Z,71.70
2019-01-11T04:55:42.597Z,71.70
2019-01-11T04:58:47.566Z,71.70
2019-01-11T05:01:52.675Z,71.40
2019-01-11T05:04:57.767Z,71.50
2019-01-11T05:08:02.863Z,71.50
2019-01-11T05:11:07.980Z,72.40
2019-01-11T05:14:12.988Z,71.80
2019-01-11T05:17:18.084Z,71.90
2019-01-11T05:20:23.167Z,72.00
2019-01-11T05:23:28.266Z,72.00
2019-01-11T05:26:33.324Z,71.80
2019-01-11T05:29:38.283Z,71.90
2019-01-11T05:32:43.387Z,71.80
2019-01-11T05:35:48.547Z,71.90
2019-01-11T05:38:54.264Z,72.20
2019-01-11T05:41:59.716Z,72.60
2019-01-11T05:45:05.695Z,72.80
2019-01-11T05:48:10.894Z,73.00
2019-01-11T05:51:16.364Z,73.30
2019-01-11T05:54:22.467Z,73.40
2019-01-11T05:57:27.518Z,73.40
2019-01-11T06:00:32.536Z,73.50
2019-01-11T06:03:37.652Z,73.70
2019-01-11T06:07:00.159Z,73.90
2019-01-11T06:10:06.648Z,73.80
2019-01-11T06:13:11.758Z,74.40
2019-01-11T06:16:16.771Z,74.40
2019-01-11T06:19:22.103Z,74.70
2019-01-11T06:22:27.275Z,75.00
2019-01-11T06:25:32.361Z,75.10
2019-01-11T06:28:37.484Z,75.30
2019-01-11T06:31:42.499Z,75.40
2019-01-11T06:34:47.623Z,75.70
2019-01-11T06:37:52.634Z,75.60
2019-01-11T06:40:57.807Z,75.90
2019-01-11T06:44:02.934Z,76.10
2019-01-11T06:47:08.048Z,76.00
2019-01-11T06:50:13.816Z,76.00
2019-01-11T06:53:18.860Z,76.10
2019-01-11T06:56:24.009Z,76.60
2019-01-11T06:59:28.968Z,76.90
2019-01-11T07:02:34.675Z,77.20
2019-01-11T07:05:39.695Z,78.00
2019-01-11T07:08:44.669Z,77.40
2019-01-11T07:11:49.824Z,77.30
2019-01-11T07:14:54.857Z,77.20
2019-01-11T07:18:01.210Z,76.90
2019-01-11T07:21:06.306Z,77.00
2019-01-11T07:24:11.438Z,77.70
2019-01-11T07:27:16.533Z,78.30
2019-01-11T07:30:23.451Z,78.60
2019-01-11T07:33:28.670Z,78.50
2019-01-11T07:36:35.825Z,78.70
2019-01-11T07:39:40.860Z,79.00
2019-01-11T07:42:45.948Z,80.20
2019-01-11T07:45:51.047Z,79.90
2019-01-11T07:48:56.114Z,80.30
2019-01-11T07:52:01.232Z,80.80
2019-01-11T07:55:07.036Z,80.90
2019-01-11T07:58:12.147Z,81.40
2019-01-11T08:01:17.258Z,82.00
2019-01-11T08:04:22.373Z,82.90
2019-01-11T08:07:27.488Z,83.40
2019-01-11T08:10:32.583Z,83.70
2019-01-11T08:13:37.700Z,84.10
2019-01-11T08:16:42.798Z,84.60
2019-01-11T08:19:47.825Z,84.90
2019-01-11T08:22:52.865Z,85.40
2019-01-11T08:25:57.886Z,85.40
2019-01-11T08:29:03.014Z,86.00
2019-01-11T08:32:08.131Z,86.00
2019-01-11T08:35:13.579Z,85.80
2019-01-11T08:38:18.600Z,86.60
2019-01-11T08:41:23.643Z,86.50
2019-01-11T08:44:28.738Z,86.70
2019-01-11T08:47:34.043Z,86.90
2019-01-11T08:50:39.239Z,87.30
2019-01-11T08:53:44.352Z,86.90
2019-01-11T08:56:49.387Z,87.20
2019-01-11T08:59:54.444Z,87.00
2019-01-11T09:02:59.395Z,87.60
2019-01-11T09:06:04.723Z,87.00
2019-01-11T09:09:09.884Z,86.90
2019-01-11T09:12:15.029Z,87.20
2019-01-11T09:15:20.154Z,87.30
2019-01-11T09:18:32.763Z,87.40
2019-01-11T09:21:41.594Z,87.30
2019-01-11T09:24:44.591Z,87.50
2019-01-11T09:27:49.791Z,87.40
2019-01-11T09:30:54.826Z,87.30
2019-01-11T09:33:59.942Z,87.50
2019-01-11T09:37:05.139Z,87.70
2019-01-11T09:40:10.563Z,87.90
2019-01-11T09:43:15.679Z,88.00
2019-01-11T09:46:20.712Z,87.60
2019-01-11T09:49:25.759Z,87.60
2019-01-11T09:52:30.955Z,87.70
2019-01-11T09:55:36.011Z,87.40
2019-01-11T09:58:41.061Z,86.90
2019-01-11T10:01:47.755Z,86.70
2019-01-11T10:04:52.851Z,86.40
2019-01-11T10:07:57.944Z,86.50
2019-01-11T10:11:03.075Z,86.70
2019-01-11T10:14:08.211Z,87.00
2019-01-11T10:17:13.315Z,86.80
2019-01-11T10:20:18.427Z,86.90
2019-01-11T10:23:23.545Z,87.00
2019-01-11T10:26:28.619Z,87.00
2019-01-11T10:29:33.674Z,86.90
2019-01-11T10:32:38.624Z,86.70
2019-01-11T10:35:43.780Z,86.50
2019-01-11T10:38:48.808Z,86.00
2019-01-11T10:41:53.939Z,86.20
2019-01-11T10:44:58.903Z,86.30
2019-01-11T10:48:04.427Z,86.70
2019-01-11T10:51:09.467Z,86.60
2019-01-11T10:54:24.327Z,87.40
2019-01-11T10:57:29.430Z,86.80
2019-01-11T11:00:35.522Z,86.90
2019-01-11T11:03:40.719Z,86.70
2019-01-11T11:06:45.852Z,86.60
2019-01-11T11:09:50.986Z,86.50
2019-01-11T11:12:56.003Z,86.80
2019-01-11T11:16:00.973Z,86.80
2019-01-11T11:19:06.160Z,86.50
2019-01-11T11:22:11.465Z,86.40
2019-01-11T11:25:20.878Z,87.10
2019-01-11T11:28:26.013Z,87.30
2019-01-11T11:31:31.067Z,87.00
2019-01-11T11:34:37.653Z,87.30
2019-01-11T11:37:42.785Z,87.70
2019-01-11T11:40:47.887Z,87.80
2019-01-11T11:43:52.862Z,88.20
2019-01-11T11:46:57.903Z,88.70
2019-01-11T11:50:03.013Z,89.20
2019-01-11T11:53:08.128Z,89.30
2019-01-11T11:56:13.236Z,89.50
2019-01-11T11:59:18.199Z,89.40
2019-01-11T12:02:23.302Z,89.00
2019-01-11T12:05:28.428Z,89.40
2019-01-11T12:08:33.536Z,89.10
2019-01-11T12:11:38.976Z,89.00
2019-01-11T12:14:44.019Z,89.20
2019-01-11T12:17:49.068Z,89.40
2019-01-11T12:20:54.188Z,89.50
2019-01-11T12:23:59.304Z,89.80
2019-01-11T12:27:04.434Z,90.00
2019-01-11T12:30:11.031Z,90.20
2019-01-11T12:33:16.143Z,90.40
2019-01-11T12:36:21.240Z,90.30
2019-01-11T12:39:26.343Z,90.40
2019-01-11T12:42:31.447Z,90.30
2019-01-11T12:45:36.578Z,90.50
2019-01-11T12:48:41.716Z,90.60
2019-01-11T12:51:46.763Z,90.50
2019-01-11T12:54:51.799Z,90.60
2019-01-11T12:57:56.752Z,90.70
2019-01-11T13:01:01.984Z,91.20
2019-01-11T13:04:07.091Z,90.90
2019-01-11T13:07:12.131Z,90.90
2019-01-11T13:10:18.395Z,91.10
2019-01-11T13:13:23.448Z,91.30
2019-01-11T13:16:28.491Z,91.60
2019-01-11T13:19:33.522Z,91.60
2019-01-11T13:22:38.655Z,91.70
2019-01-11T13:25:43.844Z,92.00
2019-01-11T13:28:48.956Z,92.10
2019-01-11T13:31:54.003Z,92.20
2019-01-11T13:34:59.118Z,92.20
2019-01-11T13:38:04.163Z,92.40
2019-01-11T13:41:09.279Z,92.40
2019-01-11T13:44:14.391Z,92.50
2019-01-11T13:47:19.500Z,92.40
2019-01-11T13:50:49.580Z,92.20
2019-01-11T13:53:54.619Z,92.50
2019-01-11T13:56:59.736Z,92.30
2019-01-11T14:00:07.139Z,92.50
2019-01-11T14:03:12.267Z,92.40
2019-01-11T14:06:17.414Z,92.30
2019-01-11T14:09:22.523Z,92.30
2019-01-11T14:12:27.496Z,92.20
2019-01-11T14:15:33.424Z,92.30
2019-01-11T14:18:38.466Z,92.30
2019-01-11T14:21:43.571Z,92.30
2019-01-11T14:24:48.635Z,92.40
2019-01-11T14:27:53.747Z,92.70
2019-01-11T14:30:58.857Z,92.70
2019-01-11T14:34:03.979Z,92.50
2019-01-11T14:37:09.109Z,92.70
2019-01-11T14:40:14.870Z,92.90
2019-01-11T14:43:19.982Z,93.00
2019-01-11T14:46:25.034Z,93.00
2019-01-11T14:49:30.267Z,93.00
2019-01-11T14:52:35.379Z,92.90
2019-01-11T14:55:40.438Z,92.90
2019-01-11T14:58:45.403Z,93.10
2019-01-11T15:01:50.438Z,93.10
2019-01-11T15:04:55.489Z,93.40
2019-01-11T15:08:00.511Z,93.40
2019-01-11T15:11:05.655Z,93.50
2019-01-11T15:14:10.993Z,93.50
2019-01-11T15:17:16.196Z,93.60
2019-01-11T15:20:21.307Z,93.60
2019-01-11T15:23:26.448Z,93.80
2019-01-11T15:26:31.496Z,93.80
2019-01-11T15:29:36.463Z,93.80
2019-01-11T15:32:41.515Z,93.90
2019-01-11T15:35:46.623Z,93.80
2019-01-11T15:38:51.658Z,93.90
2019-01-11T15:41:56.716Z,94.20
2019-01-11T15:45:01.815Z,94.20
2019-01-11T15:48:07.025Z,94.20
2019-01-11T15:51:12.155Z,94.50
2019-01-11T15:54:17.202Z,94.20
2019-01-11T15:57:41.948Z,94.20
2019-01-11T16:00:48.480Z,94.10
2019-01-11T16:03:53.710Z,94.10
2019-01-11T16:06:58.887Z,94.20
2019-01-11T16:10:10.847Z,94.40
2019-01-11T16:13:42.152Z,94.40
2019-01-11T16:16:59.788Z,94.50
2019-01-11T16:20:07.853Z,94.50
2019-01-11T16:23:12.976Z,94.40
2019-01-11T16:26:18.103Z,94.50
2019-01-11T16:29:23.139Z,94.20
2019-01-11T16:32:28.255Z,94.30
2019-01-11T16:35:33.319Z,94.30
2019-01-11T16:38:38.439Z,94.30
2019-01-11T16:41:43.527Z,94.20
2019-01-11T16:44:48.584Z,94.00
2019-01-11T16:47:53.635Z,94.20
2019-01-11T16:50:58.786Z,94.10
2019-01-11T16:54:03.914Z,94.10
2019-01-11T16:57:08.967Z,94.10
2019-01-11T17:00:16.444Z,94.00
2019-01-11T17:03:21.475Z,93.80
2019-01-11T17:06:26.614Z,93.90
2019-01-11T17:09:31.651Z,94.00
2019-01-11T17:12:41.759Z,94.00
2019-01-11T17:15:43.684Z,93.70
2019-01-11T17:18:48.782Z,93.60
2019-01-11T17:21:53.906Z,93.70
2019-01-11T17:24:58.867Z,93.90
2019-01-11T17:28:03.973Z,93.70
2019-01-11T17:31:09.016Z,93.80
2019-01-11T17:34:14.055Z,93.80
2019-01-11T17:37:19.576Z,93.80
2019-01-11T17:40:24.808Z,93.90
2019-01-11T17:43:30.050Z,93.90
2019-01-11T17:46:35.694Z,93.80
2019-01-11T17:49:41.684Z,94.00
2019-01-11T17:52:47.435Z,94.10
2019-01-11T17:55:52.631Z,94.10
2019-01-11T17:58:57.792Z,94.30
2019-01-11T18:02:02.984Z,94.40
2019-01-11T18:05:09.344Z,94.30
2019-01-11T18:08:14.464Z,94.10
2019-01-11T18:11:19.525Z,94.10
2019-01-11T18:14:24.572Z,94.00
2019-01-11T18:17:29.627Z,94.50
2019-01-11T18:20:36.066Z,94.10
2019-01-11T18:23:41.419Z,94.20
2019-01-11T18:26:46.423Z,94.10
2019-01-11T18:29:51.458Z,94.10
2019-01-11T18:32:56.423Z,94.00
2019-01-11T18:36:01.538Z,94.00
2019-01-11T18:39:08.699Z,93.80
2019-01-11T18:42:13.804Z,93.90
2019-01-11T18:45:19.323Z,93.90
2019-01-11T18:48:24.577Z,93.90
2019-01-11T18:51:29.611Z,93.90
2019-01-11T18:54:34.929Z,93.70
2019-01-11T18:57:40.058Z,93.60
2019-01-11T19:00:45.347Z,93.70
2019-01-11T19:03:51.073Z,93.80
2019-01-11T19:06:56.218Z,93.60
2019-01-11T19:10:01.219Z,93.50
2019-01-11T19:13:06.334Z,93.40
2019-01-11T19:16:12.714Z,93.50
2019-01-11T19:19:17.843Z,93.50
2019-01-11T19:22:23.064Z,93.60
2019-01-11T19:25:28.231Z,93.60
2019-01-11T19:28:33.267Z,93.90
2019-01-11T19:31:38.315Z,93.50
2019-01-11T19:34:43.443Z,93.20
2019-01-11T19:37:48.623Z,93.30
2019-01-11T19:40:53.672Z,93.40
2019-01-11T19:43:58.789Z,93.40
2019-01-11T19:47:04.181Z,93.50
2019-01-11T19:50:20.161Z,93.80
2019-01-11T19:53:27.625Z,93.90
2019-01-11T19:56:33.119Z,94.10
2019-01-11T19:59:38.228Z,94.40
2019-01-11T20:02:43.525Z,94.40
2019-01-11T20:05:48.785Z,94.30
2019-01-11T20:08:54.134Z,94.30
2019-01-11T20:12:00.933Z,94.50
2019-01-11T20:15:07.206Z,94.70
2019-01-11T20:18:12.730Z,95.30
2019-01-11T20:21:17.815Z,95.10
2019-01-11T20:24:23.005Z,95.40
2019-01-11T20:27:28.191Z,95.50
2019-01-11T20:30:33.411Z,95.60
2019-01-11T20:33:38.539Z,95.70
2019-01-11T20:36:56.435Z,96.20
2019-01-11T20:40:01.623Z,95.90
2019-01-11T20:43:07.093Z,95.80
2019-01-11T20:46:12.217Z,95.70
2019-01-11T20:49:17.359Z,95.80
2019-01-11T20:52:22.484Z,95.80
2019-01-11T20:55:27.589Z,96.20
2019-01-11T20:58:32.731Z,95.90
2019-01-11T21:01:37.774Z,95.90
2019-01-11T21:04:42.759Z,95.90
2019-01-11T21:07:47.872Z,95.90
2019-01-11T21:10:52.968Z,95.70
2019-01-11T21:13:58.122Z,95.80
2019-01-11T21:17:03.313Z,95.90
2019-01-11T21:20:10.732Z,95.90
2019-01-11T21:23:15.871Z,95.80
2019-01-11T21:26:21.056Z,95.80
2019-01-11T21:29:26.177Z,95.80
2019-01-11T21:32:31.321Z,95.90
2019-01-11T21:35:36.444Z,95.60
2019-01-11T21:38:41.498Z,95.70
2019-01-11T21:41:46.626Z,95.60
2019-01-11T21:44:52.432Z,95.50
2019-01-11T21:47:57.548Z,95.50
2019-01-11T21:51:02.671Z,95.50
2019-01-11T21:54:08.184Z,95.60
2019-01-11T21:57:13.343Z,95.60
2019-01-11T22:00:23.927Z,95.80
2019-01-11T22:03:29.160Z,95.90
2019-01-11T22:06:34.410Z,95.90
2019-01-11T22:09:40.212Z,96.10
2019-01-11T22:12:45.671Z,96.20
2019-01-11T22:15:51.577Z,96.40
2019-01-11T22:18:56.639Z,96.50
2019-01-11T22:22:01.770Z,96.70
2019-01-11T22:25:07.538Z,96.90
2019-01-11T22:28:12.659Z,97.00
2019-01-11T22:31:17.695Z,97.10
2019-01-11T22:34:22.863Z,97.10
2019-01-11T22:37:27.967Z,97.30
2019-01-11T22:40:32.991Z,97.30
2019-01-11T22:43:38.150Z,97.30
2019-01-11T22:46:43.135Z,97.40
2019-01-11T22:49:48.261Z,97.50
2019-01-11T22:52:53.452Z,97.50
2019-01-11T22:55:58.580Z,97.60
2019-01-11T22:59:03.768Z,97.70
2019-01-11T23:02:24.500Z,97.70
2019-01-11T23:05:29.527Z,97.80
2019-01-11T23:08:34.988Z,98.00
2019-01-11T23:12:14.819Z,98.00
2019-01-11T23:15:28.219Z,98.10
2019-01-11T23:18:34.087Z,98.10
2019-01-11T23:21:39.399Z,98.10
2019-01-11T23:24:44.460Z,98.10
2019-01-11T23:27:49.594Z,98.10
2019-01-11T23:30:54.621Z,98.10
2019-01-11T23:33:59.737Z,98.10
2019-01-11T23:37:04.851Z,98.10
2019-01-11T23:40:12.099Z,98.10
2019-01-11T23:43:17.247Z,98.10
2019-01-11T23:46:22.358Z,98.20
2019-01-11T23:49:27.407Z,98.20
2019-01-11T23:52:32.518Z,98.30
2019-01-11T23:55:37.563Z,98.30
2019-01-11T23:58:42.646Z,98.40
